sensor_id;sensor_type;location;lat;lon;timestamp;temperature;humidity
71839;SHT31;59687;37.520;15.068;2023-02-02T00:02:22;8.28;73.57
71839;SHT31;59687;37.520;15.068;2023-02-02T00:04:55;8.16;72.70
71839;SHT31;59687;37.520;15.068;2023-02-02T00:07:28;8.24;73.28
71839;SHT31;59687;37.520;15.068;2023-02-02T00:09:54;8.10;73.02
71839;SHT31;59687;37.520;15.068;2023-02-02T00:12:31;8.21;73.44
71839;SHT31;59687;37.520;15.068;2023-02-02T00:15:03;8.09;72.79
71839;SHT31;59687;37.520;15.068;2023-02-02T00:17:33;8.17;73.20
71839;SHT31;59687;37.520;15.068;2023-02-02T00:19:59;8.03;73.64
71839;SHT31;59687;37.520;15.068;2023-02-02T00:22:26;7.93;74.27
71839;SHT31;59687;37.520;15.068;2023-02-02T00:24:56;7.79;74.48
71839;SHT31;59687;37.520;15.068;2023-02-02T00:27:24;7.71;75.04
71839;SHT31;59687;37.520;15.068;2023-02-02T00:29:52;8.11;74.32
71839;SHT31;59687;37.520;15.068;2023-02-02T00:32:24;8.06;74.02
71839;SHT31;59687;37.520;15.068;2023-02-02T00:34:51;8.21;73.20
71839;SHT31;59687;37.520;15.068;2023-02-02T00:37:17;8.07;73.66
71839;SHT31;59687;37.520;15.068;2023-02-02T00:39:47;8.27;72.74
71839;SHT31;59687;37.520;15.068;2023-02-02T00:42:18;7.92;73.56
71839;SHT31;59687;37.520;15.068;2023-02-02T00:44:44;8.14;73.02
71839;SHT31;59687;37.520;15.068;2023-02-02T00:47:31;7.85;73.88
71839;SHT31;59687;37.520;15.068;2023-02-02T00:49:58;8.20;73.01
71839;SHT31;59687;37.520;15.068;2023-02-02T00:52:28;7.90;73.24
71839;SHT31;59687;37.520;15.068;2023-02-02T00:54:55;8.11;73.43
71839;SHT31;59687;37.520;15.068;2023-02-02T00:57:21;7.87;73.22
71839;SHT31;59687;37.520;15.068;2023-02-02T00:59:54;8.11;73.51
71839;SHT31;59687;37.520;15.068;2023-02-02T01:02:23;7.96;73.27
71839;SHT31;59687;37.520;15.068;2023-02-02T01:04:53;7.94;74.27
71839;SHT31;59687;37.520;15.068;2023-02-02T01:07:21;7.85;74.39
71839;SHT31;59687;37.520;15.068;2023-02-02T01:09:51;7.79;74.95
71839;SHT31;59687;37.520;15.068;2023-02-02T01:12:21;7.68;74.97
71839;SHT31;59687;37.520;15.068;2023-02-02T01:14:51;7.78;75.43
71839;SHT31;59687;37.520;15.068;2023-02-02T01:17:23;7.89;74.92
71839;SHT31;59687;37.520;15.068;2023-02-02T01:19:56;7.61;75.47
71839;SHT31;59687;37.520;15.068;2023-02-02T01:22:23;7.90;74.94
71839;SHT31;59687;37.520;15.068;2023-02-02T01:24:55;7.65;75.50
71839;SHT31;59687;37.520;15.068;2023-02-02T01:27:22;7.78;74.68
71839;SHT31;59687;37.520;15.068;2023-02-02T01:29:49;7.58;75.02
71839;SHT31;59687;37.520;15.068;2023-02-02T01:32:20;7.71;75.03
71839;SHT31;59687;37.520;15.068;2023-02-02T01:34:48;7.72;74.65
71839;SHT31;59687;37.520;15.068;2023-02-02T01:37:15;7.86;74.77
71839;SHT31;59687;37.520;15.068;2023-02-02T01:39:48;7.73;74.61
71839;SHT31;59687;37.520;15.068;2023-02-02T01:42:21;7.64;75.39
71839;SHT31;59687;37.520;15.068;2023-02-02T01:47:27;7.82;74.54
71839;SHT31;59687;37.520;15.068;2023-02-02T01:50:03;7.94;73.66
71839;SHT31;59687;37.520;15.068;2023-02-02T01:52:38;7.97;73.75
71839;SHT31;59687;37.520;15.068;2023-02-02T01:55:10;8.16;72.65
71839;SHT31;59687;37.520;15.068;2023-02-02T01:57:41;8.03;72.89
71839;SHT31;59687;37.520;15.068;2023-02-02T02:00:20;8.21;72.51
71839;SHT31;59687;37.520;15.068;2023-02-02T02:02:59;7.96;73.24
71839;SHT31;59687;37.520;15.068;2023-02-02T02:05:34;7.72;73.03
71839;SHT31;59687;37.520;15.068;2023-02-02T02:08:15;7.58;73.90
71839;SHT31;59687;37.520;15.068;2023-02-02T02:10:48;7.72;73.30
71839;SHT31;59687;37.520;15.068;2023-02-02T02:13:19;7.55;74.04
71839;SHT31;59687;37.520;15.068;2023-02-02T02:16:05;7.52;73.95
71839;SHT31;59687;37.520;15.068;2023-02-02T02:22:18;7.44;73.33
71839;SHT31;59687;37.520;15.068;2023-02-02T02:28:50;7.40;70.94
71839;SHT31;59687;37.520;15.068;2023-02-02T02:34:08;7.46;69.61
71839;SHT31;59687;37.520;15.068;2023-02-02T02:36:47;7.55;69.13
71839;SHT31;59687;37.520;15.068;2023-02-02T02:39:44;7.64;67.77
71839;SHT31;59687;37.520;15.068;2023-02-02T02:42:22;7.89;66.48
71839;SHT31;59687;37.520;15.068;2023-02-02T02:44:52;7.94;65.71
71839;SHT31;59687;37.520;15.068;2023-02-02T02:47:21;8.03;65.79
71839;SHT31;59687;37.520;15.068;2023-02-02T02:49:48;7.96;65.71
71839;SHT31;59687;37.520;15.068;2023-02-02T02:52:22;7.93;65.73
71839;SHT31;59687;37.520;15.068;2023-02-02T02:54:57;7.75;65.86
71839;SHT31;59687;37.520;15.068;2023-02-02T02:58:01;7.72;66.47
71839;SHT31;59687;37.520;15.068;2023-02-02T03:01:13;7.94;65.88
71839;SHT31;59687;37.520;15.068;2023-02-02T03:04:05;8.03;65.46
71839;SHT31;59687;37.520;15.068;2023-02-02T03:06:43;8.16;65.00
71839;SHT31;59687;37.520;15.068;2023-02-02T03:09:18;8.28;65.04
71839;SHT31;59687;37.520;15.068;2023-02-02T03:11:49;8.38;64.80
71839;SHT31;59687;37.520;15.068;2023-02-02T03:14:16;8.44;64.78
71839;SHT31;59687;37.520;15.068;2023-02-02T03:16:50;8.54;64.25
71839;SHT31;59687;37.520;15.068;2023-02-02T03:19:18;8.52;63.72
71839;SHT31;59687;37.520;15.068;2023-02-02T03:21:45;8.58;63.33
71839;SHT31;59687;37.520;15.068;2023-02-02T03:24:12;8.52;64.50
71839;SHT31;59687;37.520;15.068;2023-02-02T03:26:39;8.40;64.42
71839;SHT31;59687;37.520;15.068;2023-02-02T03:29:08;8.65;63.98
71839;SHT31;59687;37.520;15.068;2023-02-02T03:31:35;8.56;63.23
71839;SHT31;59687;37.520;15.068;2023-02-02T03:34:06;8.48;64.22
71839;SHT31;59687;37.520;15.068;2023-02-02T03:36:33;8.42;63.21
71839;SHT31;59687;37.520;15.068;2023-02-02T03:39:00;8.31;64.81
71839;SHT31;59687;37.520;15.068;2023-02-02T03:41:27;8.41;64.17
71839;SHT31;59687;37.520;15.068;2023-02-02T03:43:54;8.30;64.30
71839;SHT31;59687;37.520;15.068;2023-02-02T03:46:25;8.56;63.80
71839;SHT31;59687;37.520;15.068;2023-02-02T03:48:53;8.41;63.16
71839;SHT31;59687;37.520;15.068;2023-02-02T03:51:25;8.55;62.83
71839;SHT31;59687;37.520;15.068;2023-02-02T03:53:52;8.34;63.63
71839;SHT31;59687;37.520;15.068;2023-02-02T03:56:19;8.20;64.03
71839;SHT31;59687;37.520;15.068;2023-02-02T03:58:49;8.10;64.55
71839;SHT31;59687;37.520;15.068;2023-02-02T04:01:24;8.09;65.12
71839;SHT31;59687;37.520;15.068;2023-02-02T04:03:53;8.13;65.23
71839;SHT31;59687;37.520;15.068;2023-02-02T04:06:21;7.85;66.17
71839;SHT31;59687;37.520;15.068;2023-02-02T04:08:49;7.79;66.37
71839;SHT31;59687;37.520;15.068;2023-02-02T04:11:16;7.68;66.52
71839;SHT31;59687;37.520;15.068;2023-02-02T04:13:45;7.66;66.32
71839;SHT31;59687;37.520;15.068;2023-02-02T04:16:12;7.83;66.12
71839;SHT31;59687;37.520;15.068;2023-02-02T04:18:41;7.68;67.01
71839;SHT31;59687;37.520;15.068;2023-02-02T04:21:07;7.59;67.49
71839;SHT31;59687;37.520;15.068;2023-02-02T04:23:35;7.47;67.97
71839;SHT31;59687;37.520;15.068;2023-02-02T04:26:02;7.54;67.09
71839;SHT31;59687;37.520;15.068;2023-02-02T04:28:30;7.48;67.28
71839;SHT31;59687;37.520;15.068;2023-02-02T04:30:57;7.73;67.32
71839;SHT31;59687;37.520;15.068;2023-02-02T04:33:26;7.79;67.35
71839;SHT31;59687;37.520;15.068;2023-02-02T04:35:59;7.47;68.26
71839;SHT31;59687;37.520;15.068;2023-02-02T04:38:26;7.54;67.78
71839;SHT31;59687;37.520;15.068;2023-02-02T04:40:54;7.43;67.91
71839;SHT31;59687;37.520;15.068;2023-02-02T04:43:22;7.57;67.64
71839;SHT31;59687;37.520;15.068;2023-02-02T04:45:57;7.52;68.21
71839;SHT31;59687;37.520;15.068;2023-02-02T04:48:25;7.64;68.37
71839;SHT31;59687;37.520;15.068;2023-02-02T04:51:03;7.89;67.80
71839;SHT31;59687;37.520;15.068;2023-02-02T04:53:31;7.92;67.48
71839;SHT31;59687;37.520;15.068;2023-02-02T04:56:08;8.07;66.63
71839;SHT31;59687;37.520;15.068;2023-02-02T04:58:36;8.14;65.97
71839;SHT31;59687;37.520;15.068;2023-02-02T05:01:15;8.28;65.17
71839;SHT31;59687;37.520;15.068;2023-02-02T05:03:44;8.38;64.45
71839;SHT31;59687;37.520;15.068;2023-02-02T05:06:12;8.41;64.70
71839;SHT31;59687;37.520;15.068;2023-02-02T05:08:41;8.65;64.01
71839;SHT31;59687;37.520;15.068;2023-02-02T05:11:10;8.56;64.74
71839;SHT31;59687;37.520;15.068;2023-02-02T05:13:37;8.68;64.78
71839;SHT31;59687;37.520;15.068;2023-02-02T05:16:06;8.59;65.28
71839;SHT31;59687;37.520;15.068;2023-02-02T05:18:34;8.58;65.66
71839;SHT31;59687;37.520;15.068;2023-02-02T05:21:02;8.54;66.81
71839;SHT31;59687;37.520;15.068;2023-02-02T05:23:30;8.63;66.29
71839;SHT31;59687;37.520;15.068;2023-02-02T05:25:57;8.62;66.42
71839;SHT31;59687;37.520;15.068;2023-02-02T05:28:28;8.61;66.68
71839;SHT31;59687;37.520;15.068;2023-02-02T05:30:55;8.72;66.65
71839;SHT31;59687;37.520;15.068;2023-02-02T05:33:23;8.58;67.23
71839;SHT31;59687;37.520;15.068;2023-02-02T05:35:50;8.49;68.48
71839;SHT31;59687;37.520;15.068;2023-02-02T05:38:19;8.40;69.01
71839;SHT31;59687;37.520;15.068;2023-02-02T05:40:48;8.42;69.18
71839;SHT31;59687;37.520;15.068;2023-02-02T05:43:18;8.41;69.82
71839;SHT31;59687;37.520;15.068;2023-02-02T05:45:47;8.40;70.04
71839;SHT31;59687;37.520;15.068;2023-02-02T05:48:15;8.38;70.15
71839;SHT31;59687;37.520;15.068;2023-02-02T05:51:22;8.33;70.55
71839;SHT31;59687;37.520;15.068;2023-02-02T05:53:51;8.35;70.52
71839;SHT31;59687;37.520;15.068;2023-02-02T05:56:23;8.27;71.13
71839;SHT31;59687;37.520;15.068;2023-02-02T05:58:50;8.23;71.25
71839;SHT31;59687;37.520;15.068;2023-02-02T06:01:27;8.18;71.82
71839;SHT31;59687;37.520;15.068;2023-02-02T06:03:54;8.20;71.60
71839;SHT31;59687;37.520;15.068;2023-02-02T06:06:22;8.27;71.64
71839;SHT31;59687;37.520;15.068;2023-02-02T06:08:49;8.31;71.49
71839;SHT31;59687;37.520;15.068;2023-02-02T06:11:20;8.48;71.09
71839;SHT31;59687;37.520;15.068;2023-02-02T06:13:51;8.55;70.77
71839;SHT31;59687;37.520;15.068;2023-02-02T06:16:18;8.49;70.79
71839;SHT31;59687;37.520;15.068;2023-02-02T06:18:54;8.38;71.41
71839;SHT31;59687;37.520;15.068;2023-02-02T06:21:21;8.44;71.13
71839;SHT31;59687;37.520;15.068;2023-02-02T06:23:51;8.86;69.90
71839;SHT31;59687;37.520;15.068;2023-02-02T06:26:19;8.84;69.42
71839;SHT31;59687;37.520;15.068;2023-02-02T06:28:50;8.76;69.27
71839;SHT31;59687;37.520;15.068;2023-02-02T06:31:18;8.68;69.77
71839;SHT31;59687;37.520;15.068;2023-02-02T06:33:46;8.89;69.39
71839;SHT31;59687;37.520;15.068;2023-02-02T06:36:14;9.18;68.61
71839;SHT31;59687;37.520;15.068;2023-02-02T06:38:40;9.56;68.23
71839;SHT31;59687;37.520;15.068;2023-02-02T06:41:07;10.24;66.21
71839;SHT31;59687;37.520;15.068;2023-02-02T06:43:34;10.79;65.06
71839;SHT31;59687;37.520;15.068;2023-02-02T06:46:04;11.53;61.59
71839;SHT31;59687;37.520;15.068;2023-02-02T06:48:30;12.35;59.61
71839;SHT31;59687;37.520;15.068;2023-02-02T06:50:58;12.98;56.69
71839;SHT31;59687;37.520;15.068;2023-02-02T06:53:30;13.54;54.85
71839;SHT31;59687;37.520;15.068;2023-02-02T06:55:59;14.39;52.43
71839;SHT31;59687;37.520;15.068;2023-02-02T06:58:30;14.64;50.86
71839;SHT31;59687;37.520;15.068;2023-02-02T07:01:02;14.50;51.32
71839;SHT31;59687;37.520;15.068;2023-02-02T07:03:30;14.21;52.01
71839;SHT31;59687;37.520;15.068;2023-02-02T07:05:58;13.91;52.58
71839;SHT31;59687;37.520;15.068;2023-02-02T07:08:27;13.82;53.08
71839;SHT31;59687;37.520;15.068;2023-02-02T07:10:53;13.57;53.85
71839;SHT31;59687;37.520;15.068;2023-02-02T07:13:28;13.42;54.32
71839;SHT31;59687;37.520;15.068;2023-02-02T07:15:56;13.46;54.13
71839;SHT31;59687;37.520;15.068;2023-02-02T07:18:23;13.39;54.00
71839;SHT31;59687;37.520;15.068;2023-02-02T07:20:53;13.36;55.36
71839;SHT31;59687;37.520;15.068;2023-02-02T07:23:20;13.35;55.00
71839;SHT31;59687;37.520;15.068;2023-02-02T07:25:47;13.40;55.37
71839;SHT31;59687;37.520;15.068;2023-02-02T07:28:15;13.43;55.05
71839;SHT31;59687;37.520;15.068;2023-02-02T07:30:43;13.89;54.81
71839;SHT31;59687;37.520;15.068;2023-02-02T07:33:11;14.75;54.06
71839;SHT31;59687;37.520;15.068;2023-02-02T07:35:38;14.84;53.34
71839;SHT31;59687;37.520;15.068;2023-02-02T07:38:05;14.74;52.99
71839;SHT31;59687;37.520;15.068;2023-02-02T07:40:34;14.78;53.18
71839;SHT31;59687;37.520;15.068;2023-02-02T07:43:00;14.51;53.65
71839;SHT31;59687;37.520;15.068;2023-02-02T07:45:30;14.60;54.14
71839;SHT31;59687;37.520;15.068;2023-02-02T07:48:01;14.34;54.42
71839;SHT31;59687;37.520;15.068;2023-02-02T07:50:29;14.04;54.36
71839;SHT31;59687;37.520;15.068;2023-02-02T07:52:58;14.21;55.70
71839;SHT31;59687;37.520;15.068;2023-02-02T07:55:27;14.34;54.75
71839;SHT31;59687;37.520;15.068;2023-02-02T07:57:54;14.29;55.65
71839;SHT31;59687;37.520;15.068;2023-02-02T08:00:26;14.39;56.46
71839;SHT31;59687;37.520;15.068;2023-02-02T08:02:54;14.22;55.28
71839;SHT31;59687;37.520;15.068;2023-02-02T08:05:21;14.25;55.37
71839;SHT31;59687;37.520;15.068;2023-02-02T08:07:48;14.32;54.10
71839;SHT31;59687;37.520;15.068;2023-02-02T08:10:16;14.39;55.14
71839;SHT31;59687;37.520;15.068;2023-02-02T08:12:45;14.61;54.72
71839;SHT31;59687;37.520;15.068;2023-02-02T08:15:13;14.70;54.67
71839;SHT31;59687;37.520;15.068;2023-02-02T08:17:43;14.96;53.51
71839;SHT31;59687;37.520;15.068;2023-02-02T08:20:18;15.39;51.05
71839;SHT31;59687;37.520;15.068;2023-02-02T08:22:45;15.85;51.03
71839;SHT31;59687;37.520;15.068;2023-02-02T08:25:11;16.17;50.30
71839;SHT31;59687;37.520;15.068;2023-02-02T08:27:40;16.02;49.61
71839;SHT31;59687;37.520;15.068;2023-02-02T08:30:07;15.87;49.41
71839;SHT31;59687;37.520;15.068;2023-02-02T08:32:36;15.29;50.16
71839;SHT31;59687;37.520;15.068;2023-02-02T08:35:04;14.94;51.61
71839;SHT31;59687;37.520;15.068;2023-02-02T08:37:38;15.60;50.64
71839;SHT31;59687;37.520;15.068;2023-02-02T08:40:05;16.51;48.21
71839;SHT31;59687;37.520;15.068;2023-02-02T08:42:36;17.44;46.57
71839;SHT31;59687;37.520;15.068;2023-02-02T08:45:03;18.14;44.25
71839;SHT31;59687;37.520;15.068;2023-02-02T08:47:37;19.10;43.27
71839;SHT31;59687;37.520;15.068;2023-02-02T08:50:10;19.75;40.95
71839;SHT31;59687;37.520;15.068;2023-02-02T08:52:40;20.47;38.75
71839;SHT31;59687;37.520;15.068;2023-02-02T08:55:09;21.19;38.31
71839;SHT31;59687;37.520;15.068;2023-02-02T08:57:38;21.58;37.06
71839;SHT31;59687;37.520;15.068;2023-02-02T09:00:07;21.42;37.08
71839;SHT31;59687;37.520;15.068;2023-02-02T09:02:35;20.56;37.96
71839;SHT31;59687;37.520;15.068;2023-02-02T09:05:02;20.79;37.77
71839;SHT31;59687;37.520;15.068;2023-02-02T09:07:35;21.58;37.09
71839;SHT31;59687;37.520;15.068;2023-02-02T09:10:02;20.75;38.29
71839;SHT31;59687;37.520;15.068;2023-02-02T09:12:31;20.44;39.68
71839;SHT31;59687;37.520;15.068;2023-02-02T09:14:58;20.89;38.35
71839;SHT31;59687;37.520;15.068;2023-02-02T09:17:31;21.37;37.88
71839;SHT31;59687;37.520;15.068;2023-02-02T09:20:01;20.33;39.12
71839;SHT31;59687;37.520;15.068;2023-02-02T09:22:32;20.05;40.22
71839;SHT31;59687;37.520;15.068;2023-02-02T09:24:59;20.41;39.59
71839;SHT31;59687;37.520;15.068;2023-02-02T09:27:26;21.37;37.91
71839;SHT31;59687;37.520;15.068;2023-02-02T09:29:53;21.92;36.81
71839;SHT31;59687;37.520;15.068;2023-02-02T09:32:20;22.47;36.08
71839;SHT31;59687;37.520;15.068;2023-02-02T09:34:47;22.92;35.17
71839;SHT31;59687;37.520;15.068;2023-02-02T09:37:14;22.83;34.78
71839;SHT31;59687;37.520;15.068;2023-02-02T09:39:43;23.41;32.77
71839;SHT31;59687;37.520;15.068;2023-02-02T09:47:55;25.07;31.55
71839;SHT31;59687;37.520;15.068;2023-02-02T09:50:51;24.53;32.50
71839;SHT31;59687;37.520;15.068;2023-02-02T09:53:37;23.72;34.89
71839;SHT31;59687;37.520;15.068;2023-02-02T09:56:26;23.67;35.48
71839;SHT31;59687;37.520;15.068;2023-02-02T09:58:56;23.42;35.89
71839;SHT31;59687;37.520;15.068;2023-02-02T10:01:37;22.70;35.56
71839;SHT31;59687;37.520;15.068;2023-02-02T10:07:04;22.11;35.70
71839;SHT31;59687;37.520;15.068;2023-02-02T10:09:59;22.43;32.58
71839;SHT31;59687;37.520;15.068;2023-02-02T10:20:57;24.25;30.90
71839;SHT31;59687;37.520;15.068;2023-02-02T10:23:30;25.21;31.20
71839;SHT31;59687;37.520;15.068;2023-02-02T10:26:07;26.14;29.14
71839;SHT31;59687;37.520;15.068;2023-02-02T10:31:41;27.24;27.38
71839;SHT31;59687;37.520;15.068;2023-02-02T10:37:21;27.11;27.21
71839;SHT31;59687;37.520;15.068;2023-02-02T10:45:41;28.44;26.06
71839;SHT31;59687;37.520;15.068;2023-02-02T10:48:21;29.49;25.63
71839;SHT31;59687;37.520;15.068;2023-02-02T10:50:53;29.12;25.85
71839;SHT31;59687;37.520;15.068;2023-02-02T10:53:26;29.32;25.50
71839;SHT31;59687;37.520;15.068;2023-02-02T10:58:39;28.83;25.60
71839;SHT31;59687;37.520;15.068;2023-02-02T11:01:09;28.57;27.20
71839;SHT31;59687;37.520;15.068;2023-02-02T11:03:37;29.29;26.28
71839;SHT31;59687;37.520;15.068;2023-02-02T11:06:06;29.87;25.33
71839;SHT31;59687;37.520;15.068;2023-02-02T11:08:53;30.18;24.84
71839;SHT31;59687;37.520;15.068;2023-02-02T11:11:29;29.66;25.39
71839;SHT31;59687;37.520;15.068;2023-02-02T11:16:36;28.34;26.88
71839;SHT31;59687;37.520;15.068;2023-02-02T11:21:49;25.20;32.10
71839;SHT31;59687;37.520;15.068;2023-02-02T11:24:44;26.16;30.76
71839;SHT31;59687;37.520;15.068;2023-02-02T11:27:38;26.38;29.74
71839;SHT31;59687;37.520;15.068;2023-02-02T11:30:33;26.96;28.89
71839;SHT31;59687;37.520;15.068;2023-02-02T11:33:26;27.43;28.74
71839;SHT31;59687;37.520;15.068;2023-02-02T11:38:32;26.36;30.16
71839;SHT31;59687;37.520;15.068;2023-02-02T11:41:09;25.87;30.73
71839;SHT31;59687;37.520;15.068;2023-02-02T11:43:47;25.35;30.67
71839;SHT31;59687;37.520;15.068;2023-02-02T11:46:20;25.48;30.10
71839;SHT31;59687;37.520;15.068;2023-02-02T11:48:59;24.61;30.73
71839;SHT31;59687;37.520;15.068;2023-02-02T11:51:31;24.44;31.07
71839;SHT31;59687;37.520;15.068;2023-02-02T11:57:09;20.30;36.35
71839;SHT31;59687;37.520;15.068;2023-02-02T11:59:44;18.73;39.77
71839;SHT31;59687;37.520;15.068;2023-02-02T12:04:48;17.54;42.98
71839;SHT31;59687;37.520;15.068;2023-02-02T12:07:31;16.86;45.70
71839;SHT31;59687;37.520;15.068;2023-02-02T12:10:11;16.26;46.48
71839;SHT31;59687;37.520;15.068;2023-02-02T12:17:45;16.47;49.18
71839;SHT31;59687;37.520;15.068;2023-02-02T12:20:29;16.69;46.42
71839;SHT31;59687;37.520;15.068;2023-02-02T12:23:19;16.50;46.33
71839;SHT31;59687;37.520;15.068;2023-02-02T12:29:43;16.33;47.36
71839;SHT31;59687;37.520;15.068;2023-02-02T12:35:03;19.65;38.92
71839;SHT31;59687;37.520;15.068;2023-02-02T12:37:52;22.22;35.01
71839;SHT31;59687;37.520;15.068;2023-02-02T12:40:37;23.13;33.13
71839;SHT31;59687;37.520;15.068;2023-02-02T12:43:36;25.32;29.60
71839;SHT31;59687;37.520;15.068;2023-02-02T12:46:19;27.01;27.44
71839;SHT31;59687;37.520;15.068;2023-02-02T12:49:06;28.18;25.85
71839;SHT31;59687;37.520;15.068;2023-02-02T12:57:49;25.28;28.83
71839;SHT31;59687;37.520;15.068;2023-02-02T13:09:03;17.70;40.50
71839;SHT31;59687;37.520;15.068;2023-02-02T13:12:10;16.86;42.90
71839;SHT31;59687;37.520;15.068;2023-02-02T13:14:54;16.34;43.96
71839;SHT31;59687;37.520;15.068;2023-02-02T13:17:39;16.26;44.11
71839;SHT31;59687;37.520;15.068;2023-02-02T13:26:06;15.29;45.23
71839;SHT31;59687;37.520;15.068;2023-02-02T13:31:27;15.09;46.26
71839;SHT31;59687;37.520;15.068;2023-02-02T13:34:20;15.18;47.09
71839;SHT31;59687;37.520;15.068;2023-02-02T13:36:59;15.32;46.32
71839;SHT31;59687;37.520;15.068;2023-02-02T13:39:39;15.39;46.34
71839;SHT31;59687;37.520;15.068;2023-02-02T13:48:07;19.37;37.00
71839;SHT31;59687;37.520;15.068;2023-02-02T13:50:46;20.06;36.18
71839;SHT31;59687;37.520;15.068;2023-02-02T14:01:31;21.15;34.25
71839;SHT31;59687;37.520;15.068;2023-02-02T14:04:01;19.92;35.76
71839;SHT31;59687;37.520;15.068;2023-02-02T14:06:54;19.04;38.17
71839;SHT31;59687;37.520;15.068;2023-02-02T14:09:25;18.57;38.42
71839;SHT31;59687;37.520;15.068;2023-02-02T14:12:06;18.30;39.50
71839;SHT31;59687;37.520;15.068;2023-02-02T14:14:35;17.74;39.74
71839;SHT31;59687;37.520;15.068;2023-02-02T14:22:47;16.02;43.75
71839;SHT31;59687;37.520;15.068;2023-02-02T14:28:06;15.53;45.37
71839;SHT31;59687;37.520;15.068;2023-02-02T14:30:38;15.36;45.63
71839;SHT31;59687;37.520;15.068;2023-02-02T14:33:23;15.27;45.58
71839;SHT31;59687;37.520;15.068;2023-02-02T14:35:58;15.02;46.01
71839;SHT31;59687;37.520;15.068;2023-02-02T14:38:53;15.06;45.29
71839;SHT31;59687;37.520;15.068;2023-02-02T14:41:43;14.91;46.15
71839;SHT31;59687;37.520;15.068;2023-02-02T14:44:32;15.09;46.76
71839;SHT31;59687;37.520;15.068;2023-02-02T14:47:36;15.09;48.14
71839;SHT31;59687;37.520;15.068;2023-02-02T14:49:55;15.16;46.35
71839;SHT31;59687;37.520;15.068;2023-02-02T14:52:22;15.13;47.17
71839;SHT31;59687;37.520;15.068;2023-02-02T14:54:56;15.18;46.43
71839;SHT31;59687;37.520;15.068;2023-02-02T14:57:28;15.32;46.79
71839;SHT31;59687;37.520;15.068;2023-02-02T14:59:56;15.30;45.70
71839;SHT31;59687;37.520;15.068;2023-02-02T15:02:35;15.37;46.34
71839;SHT31;59687;37.520;15.068;2023-02-02T15:08:18;15.25;46.13
71839;SHT31;59687;37.520;15.068;2023-02-02T15:13:23;14.95;47.80
71839;SHT31;59687;37.520;15.068;2023-02-02T15:16:02;14.75;48.46
71839;SHT31;59687;37.520;15.068;2023-02-02T15:18:38;14.88;48.29
71839;SHT31;59687;37.520;15.068;2023-02-02T15:21:06;14.67;48.85
71839;SHT31;59687;37.520;15.068;2023-02-02T15:23:42;14.81;47.71
71839;SHT31;59687;37.520;15.068;2023-02-02T15:26:31;14.81;48.90
71839;SHT31;59687;37.520;15.068;2023-02-02T15:29:05;14.80;48.48
71839;SHT31;59687;37.520;15.068;2023-02-02T15:31:41;14.77;49.39
71839;SHT31;59687;37.520;15.068;2023-02-02T15:34:57;14.64;49.64
71839;SHT31;59687;37.520;15.068;2023-02-02T15:37:30;14.70;50.15
71839;SHT31;59687;37.520;15.068;2023-02-02T15:40:11;14.53;50.25
71839;SHT31;59687;37.520;15.068;2023-02-02T15:42:44;14.51;50.94
71839;SHT31;59687;37.520;15.068;2023-02-02T15:45:34;14.15;51.86
71839;SHT31;59687;37.520;15.068;2023-02-02T15:48:25;14.25;51.77
71839;SHT31;59687;37.520;15.068;2023-02-02T15:51:15;14.14;52.41
71839;SHT31;59687;37.520;15.068;2023-02-02T15:53:48;14.11;52.54
71839;SHT31;59687;37.520;15.068;2023-02-02T15:56:29;14.05;53.04
71839;SHT31;59687;37.520;15.068;2023-02-02T15:58:59;14.02;51.57
71839;SHT31;59687;37.520;15.068;2023-02-02T16:01:31;14.06;51.39
71839;SHT31;59687;37.520;15.068;2023-02-02T16:06:40;13.98;52.84
71839;SHT31;59687;37.520;15.068;2023-02-02T16:09:18;13.78;53.56
71839;SHT31;59687;37.520;15.068;2023-02-02T16:11:48;13.84;54.18
71839;SHT31;59687;37.520;15.068;2023-02-02T16:14:16;13.73;54.57
71839;SHT31;59687;37.520;15.068;2023-02-02T16:16:46;13.89;54.64
71839;SHT31;59687;37.520;15.068;2023-02-02T16:19:24;13.66;54.70
71839;SHT31;59687;37.520;15.068;2023-02-02T16:22:05;13.78;54.39
71839;SHT31;59687;37.520;15.068;2023-02-02T16:24:38;13.50;55.71
71839;SHT31;59687;37.520;15.068;2023-02-02T16:27:07;13.61;56.45
71839;SHT31;59687;37.520;15.068;2023-02-02T16:29:38;13.32;57.60
71839;SHT31;59687;37.520;15.068;2023-02-02T16:32:05;13.60;57.62
71839;SHT31;59687;37.520;15.068;2023-02-02T16:34:45;13.33;58.28
71839;SHT31;59687;37.520;15.068;2023-02-02T16:37:26;13.46;58.03
71839;SHT31;59687;37.520;15.068;2023-02-02T16:39:55;13.46;58.55
71839;SHT31;59687;37.520;15.068;2023-02-02T16:44:52;13.14;59.41
71839;SHT31;59687;37.520;15.068;2023-02-02T16:55:18;12.85;60.94
71839;SHT31;59687;37.520;15.068;2023-02-02T16:57:48;12.64;61.27
71839;SHT31;59687;37.520;15.068;2023-02-02T17:00:21;12.50;62.39
71839;SHT31;59687;37.520;15.068;2023-02-02T17:02:52;12.42;62.65
71839;SHT31;59687;37.520;15.068;2023-02-02T17:05:26;12.35;63.12
71839;SHT31;59687;37.520;15.068;2023-02-02T17:08:00;12.29;63.05
71839;SHT31;59687;37.520;15.068;2023-02-02T17:10:42;12.26;63.55
71839;SHT31;59687;37.520;15.068;2023-02-02T17:13:40;12.15;63.69
71839;SHT31;59687;37.520;15.068;2023-02-02T17:16:19;12.10;64.26
71839;SHT31;59687;37.520;15.068;2023-02-02T17:18:47;12.02;64.32
71839;SHT31;59687;37.520;15.068;2023-02-02T17:21:24;12.17;64.36
71839;SHT31;59687;37.520;15.068;2023-02-02T17:23:51;11.99;64.73
71839;SHT31;59687;37.520;15.068;2023-02-02T17:26:22;12.02;64.55
71839;SHT31;59687;37.520;15.068;2023-02-02T17:28:54;11.87;64.79
71839;SHT31;59687;37.520;15.068;2023-02-02T17:31:26;11.87;64.88
71839;SHT31;59687;37.520;15.068;2023-02-02T17:33:56;11.78;65.12
71839;SHT31;59687;37.520;15.068;2023-02-02T17:36:22;11.91;64.69
71839;SHT31;59687;37.520;15.068;2023-02-02T17:38:50;11.76;65.10
71839;SHT31;59687;37.520;15.068;2023-02-02T17:41:21;11.83;64.59
71839;SHT31;59687;37.520;15.068;2023-02-02T17:43:56;11.69;65.14
71839;SHT31;59687;37.520;15.068;2023-02-02T17:46:25;11.59;65.22
71839;SHT31;59687;37.520;15.068;2023-02-02T17:48:57;11.55;64.91
71839;SHT31;59687;37.520;15.068;2023-02-02T17:51:25;11.53;64.89
71839;SHT31;59687;37.520;15.068;2023-02-02T17:53:54;11.55;64.92
71839;SHT31;59687;37.520;15.068;2023-02-02T17:56:25;11.50;65.69
71839;SHT31;59687;37.520;15.068;2023-02-02T17:58:53;11.69;65.58
71839;SHT31;59687;37.520;15.068;2023-02-02T18:01:22;11.53;65.97
71839;SHT31;59687;37.520;15.068;2023-02-02T18:03:50;11.39;65.86
71839;SHT31;59687;37.520;15.068;2023-02-02T18:06:21;11.40;66.04
71839;SHT31;59687;37.520;15.068;2023-02-02T18:08:47;11.35;66.25
71839;SHT31;59687;37.520;15.068;2023-02-02T18:11:15;11.36;66.05
71839;SHT31;59687;37.520;15.068;2023-02-02T18:13:42;11.24;66.43